sensor_id;sensor_type;location;lat;lon;timestamp;pressure;altitude;pressure_sealevel;temperature;humidity
50702;BME280;36670;50.094;8.496;2023-03-13T00:01:57;99658.72;;;9.33;67.25
50702;BME280;36670;50.094;8.496;2023-03-13T00:04:22;99640.59;;;9.42;67.08
50702;BME280;36670;50.094;8.496;2023-03-13T00:06:48;99644.13;;;9.65;67.06
50702;BME280;36670;50.094;8.496;2023-03-13T00:09:15;99640.84;;;9.35;67.21
50702;BME280;36670;50.094;8.496;2023-03-13T00:11:41;99631.94;;;9.28;67.56
50702;BME280;36670;50.094;8.496;2023-03-13T00:14:07;99633.66;;;9.34;67.42
50702;BME280;36670;50.094;8.496;2023-03-13T00:16:33;99631.50;;;9.42;67.92
50702;BME280;36670;50.094;8.496;2023-03-13T00:18:59;99637.38;;;9.50;67.14
50702;BME280;36670;50.094;8.496;2023-03-13T00:21:27;99630.78;;;9.51;67.58
50702;BME280;36670;50.094;8.496;2023-03-13T00:23:53;99619.88;;;9.67;67.35
50702;BME280;36670;50.094;8.496;2023-03-13T00:26:22;99626.31;;;9.45;68.30
50702;BME280;36670;50.094;8.496;2023-03-13T00:28:48;99629.16;;;9.28;68.48
50702;BME280;36670;50.094;8.496;2023-03-13T00:31:26;99616.59;;;9.37;68.60
50702;BME280;36670;50.094;8.496;2023-03-13T00:33:54;99614.44;;;9.39;67.34
50702;BME280;36670;50.094;8.496;2023-03-13T00:36:24;99602.50;;;9.66;67.37
50702;BME280;36670;50.094;8.496;2023-03-13T00:38:51;99599.06;;;9.81;67.61
50702;BME280;36670;50.094;8.496;2023-03-13T00:41:19;99599.66;;;9.88;66.67
50702;BME280;36670;50.094;8.496;2023-03-13T00:43:45;99586.84;;;9.72;67.23
50702;BME280;36670;50.094;8.496;2023-03-13T00:46:12;99584.34;;;9.70;67.51
50702;BME280;36670;50.094;8.496;2023-03-13T00:48:38;99576.69;;;9.78;67.47
50702;BME280;36670;50.094;8.496;2023-03-13T00:51:04;99581.75;;;9.91;67.32
50702;BME280;36670;50.094;8.496;2023-03-13T00:53:29;99577.34;;;9.95;67.57
50702;BME280;36670;50.094;8.496;2023-03-13T00:58:22;99559.44;;;9.98;67.63
50702;BME280;36670;50.094;8.496;2023-03-13T01:00:48;99562.94;;;9.83;68.41
50702;BME280;36670;50.094;8.496;2023-03-13T01:03:14;99547.31;;;9.99;67.77
50702;BME280;36670;50.094;8.496;2023-03-13T01:05:40;99544.31;;;10.05;67.64
50702;BME280;36670;50.094;8.496;2023-03-13T01:08:05;99550.19;;;10.19;67.71
50702;BME280;36670;50.094;8.496;2023-03-13T01:10:30;99541.66;;;10.26;67.28
50702;BME280;36670;50.094;8.496;2023-03-13T01:12:55;99547.16;;;10.21;67.10
50702;BME280;36670;50.094;8.496;2023-03-13T01:15:21;99528.66;;;10.21;68.15
50702;BME280;36670;50.094;8.496;2023-03-13T01:17:46;99529.00;;;10.30;67.69
50702;BME280;36670;50.094;8.496;2023-03-13T01:20:12;99524.63;;;10.39;67.90
50702;BME280;36670;50.094;8.496;2023-03-13T01:22:37;99527.69;;;10.48;66.95
50702;BME280;36670;50.094;8.496;2023-03-13T01:25:03;99523.56;;;10.56;66.88
50702;BME280;36670;50.094;8.496;2023-03-13T01:27:29;99506.44;;;10.49;66.75
50702;BME280;36670;50.094;8.496;2023-03-13T01:29:54;99518.34;;;10.59;66.98
50702;BME280;36670;50.094;8.496;2023-03-13T01:32:20;99506.22;;;10.71;66.40
50702;BME280;36670;50.094;8.496;2023-03-13T01:34:45;99503.75;;;10.69;66.34
50702;BME280;36670;50.094;8.496;2023-03-13T01:37:10;99509.00;;;10.86;66.59
50702;BME280;36670;50.094;8.496;2023-03-13T01:39:36;99507.34;;;10.85;65.64
50702;BME280;36670;50.094;8.496;2023-03-13T01:42:02;99500.97;;;10.80;66.51
50702;BME280;36670;50.094;8.496;2023-03-13T01:44:28;99480.03;;;10.79;65.72
50702;BME280;36670;50.094;8.496;2023-03-13T01:46:53;99491.06;;;10.84;65.97
50702;BME280;36670;50.094;8.496;2023-03-13T01:49:24;99490.22;;;10.78;66.03
50702;BME280;36670;50.094;8.496;2023-03-13T01:52:24;99475.59;;;10.88;66.43
50702;BME280;36670;50.094;8.496;2023-03-13T01:54:55;99472.56;;;10.79;66.00
50702;BME280;36670;50.094;8.496;2023-03-13T01:57:26;99472.28;;;10.70;66.32
50702;BME280;36670;50.094;8.496;2023-03-13T01:59:58;99466.75;;;10.75;66.51
50702;BME280;36670;50.094;8.496;2023-03-13T02:02:25;99459.31;;;10.86;66.22
50702;BME280;36670;50.094;8.496;2023-03-13T02:04:56;99460.69;;;10.94;66.22
50702;BME280;36670;50.094;8.496;2023-03-13T02:07:28;99435.56;;;10.80;66.54
50702;BME280;36670;50.094;8.496;2023-03-13T02:09:55;99443.81;;;10.85;65.96
50702;BME280;36670;50.094;8.496;2023-03-13T02:12:28;99441.91;;;10.86;66.10
50702;BME280;36670;50.094;8.496;2023-03-13T02:14:55;99432.50;;;10.92;65.74
50702;BME280;36670;50.094;8.496;2023-03-13T02:17:22;99433.09;;;10.94;65.62
50702;BME280;36670;50.094;8.496;2023-03-13T02:19:50;99428.09;;;10.91;66.09
50702;BME280;36670;50.094;8.496;2023-03-13T02:22:27;99430.56;;;10.98;65.90
50702;BME280;36670;50.094;8.496;2023-03-13T02:27:50;99425.88;;;11.08;66.23
50702;BME280;36670;50.094;8.496;2023-03-13T02:30:17;99409.56;;;10.97;66.27
50702;BME280;36670;50.094;8.496;2023-03-13T02:32:44;99393.84;;;10.87;66.81
50702;BME280;36670;50.094;8.496;2023-03-13T02:35:14;99371.50;;;10.63;67.29
50702;BME280;36670;50.094;8.496;2023-03-13T02:37:47;99394.13;;;10.70;67.33
50702;BME280;36670;50.094;8.496;2023-03-13T02:40:17;99398.25;;;10.83;67.27
50702;BME280;36670;50.094;8.496;2023-03-13T02:42:46;99389.19;;;10.72;67.97
50702;BME280;36670;50.094;8.496;2023-03-13T02:45:14;99383.63;;;10.77;67.28
50702;BME280;36670;50.094;8.496;2023-03-13T02:47:39;99374.25;;;10.73;67.80
50702;BME280;36670;50.094;8.496;2023-03-13T02:50:05;99379.22;;;10.81;67.48
50702;BME280;36670;50.094;8.496;2023-03-13T02:52:36;99371.50;;;10.88;67.49
50702;BME280;36670;50.094;8.496;2023-03-13T02:55:08;99369.53;;;10.99;67.20
50702;BME280;36670;50.094;8.496;2023-03-13T02:57:34;99355.47;;;10.96;67.67
50702;BME280;36670;50.094;8.496;2023-03-13T03:00:00;99348.00;;;10.91;67.61
50702;BME280;36670;50.094;8.496;2023-03-13T03:02:25;99360.72;;;10.82;67.45
50702;BME280;36670;50.094;8.496;2023-03-13T03:04:50;99345.00;;;10.72;67.74
50702;BME280;36670;50.094;8.496;2023-03-13T03:07:16;99341.97;;;10.73;68.13
50702;BME280;36670;50.094;8.496;2023-03-13T03:09:41;99342.50;;;10.81;68.25
50702;BME280;36670;50.094;8.496;2023-03-13T03:12:07;99326.47;;;10.83;68.46
50702;BME280;36670;50.094;8.496;2023-03-13T03:14:32;99323.44;;;10.89;67.76
50702;BME280;36670;50.094;8.496;2023-03-13T03:16:57;99331.72;;;11.00;67.62
50702;BME280;36670;50.094;8.496;2023-03-13T03:19:23;99333.91;;;11.03;68.26
50702;BME280;36670;50.094;8.496;2023-03-13T03:21:48;99341.91;;;11.04;68.33
50702;BME280;36670;50.094;8.496;2023-03-13T03:24:14;99329.19;;;11.08;67.43
50702;BME280;36670;50.094;8.496;2023-03-13T03:26:39;99335.56;;;10.99;68.77
50702;BME280;36670;50.094;8.496;2023-03-13T03:29:05;99335.25;;;11.10;67.84
50702;BME280;36670;50.094;8.496;2023-03-13T03:31:32;99333.91;;;11.03;68.57
50702;BME280;36670;50.094;8.496;2023-03-13T03:33:57;99334.78;;;10.78;69.03
50702;BME280;36670;50.094;8.496;2023-03-13T03:36:23;99348.00;;;10.91;68.65
50702;BME280;36670;50.094;8.496;2023-03-13T03:38:49;99349.09;;;11.05;68.74
50702;BME280;36670;50.094;8.496;2023-03-13T03:41:15;99340.53;;;11.12;68.67
50702;BME280;36670;50.094;8.496;2023-03-13T03:43:42;99335.84;;;11.02;68.88
50702;BME280;36670;50.094;8.496;2023-03-13T03:46:07;99334.19;;;11.06;68.98
50702;BME280;36670;50.094;8.496;2023-03-13T03:48:33;99321.50;;;10.85;70.01
50702;BME280;36670;50.094;8.496;2023-03-13T03:50:59;99304.63;;;11.02;69.54
50702;BME280;36670;50.094;8.496;2023-03-13T03:53:24;99329.72;;;11.10;69.82
50702;BME280;36670;50.094;8.496;2023-03-13T03:55:49;99317.28;;;11.18;69.88
50702;BME280;36670;50.094;8.496;2023-03-13T03:58:15;99315.66;;;11.12;69.73
50702;BME280;36670;50.094;8.496;2023-03-13T04:00:45;99314.84;;;11.06;69.61
50702;BME280;36670;50.094;8.496;2023-03-13T04:03:11;99305.72;;;11.01;70.26
50702;BME280;36670;50.094;8.496;2023-03-13T04:05:36;99313.47;;;10.99;70.30
50702;BME280;36670;50.094;8.496;2023-03-13T04:08:02;99300.25;;;10.90;70.74
50702;BME280;36670;50.094;8.496;2023-03-13T04:10:27;99296.34;;;11.07;70.09
50702;BME280;36670;50.094;8.496;2023-03-13T04:12:52;99300.78;;;11.03;69.96
50702;BME280;36670;50.094;8.496;2023-03-13T04:15:18;99290.56;;;10.93;70.72
50702;BME280;36670;50.094;8.496;2023-03-13T04:17:43;99295.28;;;10.82;71.55
50702;BME280;36670;50.094;8.496;2023-03-13T04:20:09;99289.75;;;10.77;71.70
50702;BME280;36670;50.094;8.496;2023-03-13T04:22:35;99284.78;;;10.89;70.83
50702;BME280;36670;50.094;8.496;2023-03-13T04:25:01;99283.38;;;10.92;71.21
50702;BME280;36670;50.094;8.496;2023-03-13T04:27:26;99277.63;;;10.78;71.72
50702;BME280;36670;50.094;8.496;2023-03-13T04:29:51;99272.59;;;11.01;71.12
50702;BME280;36670;50.094;8.496;2023-03-13T04:32:16;99273.66;;;11.15;71.39
50702;BME280;36670;50.094;8.496;2023-03-13T04:34:42;99265.66;;;11.08;70.73
50702;BME280;36670;50.094;8.496;2023-03-13T04:37:07;99258.53;;;10.92;72.24
50702;BME280;36670;50.094;8.496;2023-03-13T04:39:32;99263.81;;;10.83;71.91
50702;BME280;36670;50.094;8.496;2023-03-13T04:41:58;99272.63;;;10.85;72.37
50702;BME280;36670;50.094;8.496;2023-03-13T04:44:23;99247.00;;;10.74;72.57
50702;BME280;36670;50.094;8.496;2023-03-13T04:46:48;99255.53;;;10.78;73.03
50702;BME280;36670;50.094;8.496;2023-03-13T04:49:14;99234.25;;;10.89;72.85
50702;BME280;36670;50.094;8.496;2023-03-13T04:51:41;99237.88;;;10.69;73.68
50702;BME280;36670;50.094;8.496;2023-03-13T04:54:06;99247.25;;;10.73;73.29
50702;BME280;36670;50.094;8.496;2023-03-13T04:56:32;99254.44;;;10.79;73.95
50702;BME280;36670;50.094;8.496;2023-03-13T04:58:57;99246.97;;;10.90;73.52
50702;BME280;36670;50.094;8.496;2023-03-13T05:01:22;99249.38;;;11.12;72.90
50702;BME280;36670;50.094;8.496;2023-03-13T05:03:47;99241.09;;;11.02;73.41
50702;BME280;36670;50.094;8.496;2023-03-13T05:06:13;99244.91;;;11.21;72.66
50702;BME280;36670;50.094;8.496;2023-03-13T05:08:38;99242.34;;;11.35;71.85
50702;BME280;36670;50.094;8.496;2023-03-13T05:11:04;99236.22;;;11.43;71.53
50702;BME280;36670;50.094;8.496;2023-03-13T05:13:30;99245.03;;;11.51;71.73
50702;BME280;36670;50.094;8.496;2023-03-13T05:15:55;99219.19;;;11.26;71.75
50702;BME280;36670;50.094;8.496;2023-03-13T05:18:21;99215.00;;;11.28;72.78
50702;BME280;36670;50.094;8.496;2023-03-13T05:20:46;99209.25;;;11.25;72.47
50702;BME280;36670;50.094;8.496;2023-03-13T05:23:12;99194.38;;;11.16;72.66
50702;BME280;36670;50.094;8.496;2023-03-13T05:25:37;99195.47;;;11.15;72.82
50702;BME280;36670;50.094;8.496;2023-03-13T05:28:03;99186.66;;;11.07;74.17
50702;BME280;36670;50.094;8.496;2023-03-13T05:30:28;99178.38;;;11.13;73.43
50702;BME280;36670;50.094;8.496;2023-03-13T05:32:53;99170.38;;;11.06;73.35
50702;BME280;36670;50.094;8.496;2023-03-13T05:35:19;99177.59;;;10.97;74.17
50702;BME280;36670;50.094;8.496;2023-03-13T05:37:44;99155.03;;;10.79;75.86
50702;BME280;36670;50.094;8.496;2023-03-13T05:40:10;99166.06;;;10.84;76.20
50702;BME280;36670;50.094;8.496;2023-03-13T05:42:36;99174.88;;;10.86;76.60
50702;BME280;36670;50.094;8.496;2023-03-13T05:45:01;99201.88;;;11.05;75.85
50702;BME280;36670;50.094;8.496;2023-03-13T05:47:27;99216.22;;;11.12;76.06
50702;BME280;36670;50.094;8.496;2023-03-13T05:49:52;99211.78;;;11.16;75.97
50702;BME280;36670;50.094;8.496;2023-03-13T05:52:18;99213.41;;;11.22;76.17
50702;BME280;36670;50.094;8.496;2023-03-13T05:54:43;99202.94;;;11.09;76.25
50702;BME280;36670;50.094;8.496;2023-03-13T05:57:08;99199.38;;;11.08;77.52
50702;BME280;36670;50.094;8.496;2023-03-13T05:59:33;99197.69;;;11.13;77.18
50702;BME280;36670;50.094;8.496;2023-03-13T06:01:59;99163.44;;;11.14;77.00
50702;BME280;36670;50.094;8.496;2023-03-13T06:04:25;99143.34;;;11.03;76.98
50702;BME280;36670;50.094;8.496;2023-03-13T06:06:50;99154.81;;;11.25;76.24
50702;BME280;36670;50.094;8.496;2023-03-13T06:09:16;99134.94;;;11.23;77.39
50702;BME280;36670;50.094;8.496;2023-03-13T06:11:41;99135.06;;;11.03;77.25
50702;BME280;36670;50.094;8.496;2023-03-13T06:14:06;99132.09;;;11.34;76.89
50702;BME280;36670;50.094;8.496;2023-03-13T06:16:32;99135.63;;;11.44;76.47
50702;BME280;36670;50.094;8.496;2023-03-13T06:18:57;99126.53;;;11.44;76.80
50702;BME280;36670;50.094;8.496;2023-03-13T06:21:23;99143.50;;;11.61;76.03
50702;BME280;36670;50.094;8.496;2023-03-13T06:23:48;99128.16;;;11.45;76.92
50702;BME280;36670;50.094;8.496;2023-03-13T06:26:14;99136.88;;;11.63;77.70
50702;BME280;36670;50.094;8.496;2023-03-13T06:28:39;99140.09;;;11.75;77.13
50702;BME280;36670;50.094;8.496;2023-03-13T06:31:06;99136.72;;;11.83;77.23
50702;BME280;36670;50.094;8.496;2023-03-13T06:33:32;99146.53;;;11.65;77.94
50702;BME280;36670;50.094;8.496;2023-03-13T06:35:59;99146.41;;;11.81;77.67
50702;BME280;36670;50.094;8.496;2023-03-13T06:38:24;99134.72;;;11.89;78.49
50702;BME280;36670;50.094;8.496;2023-03-13T06:40:50;99136.34;;;11.95;78.22
50702;BME280;36670;50.094;8.496;2023-03-13T06:43:15;99124.16;;;12.01;78.10
50702;BME280;36670;50.094;8.496;2023-03-13T06:45:40;99134.84;;;12.08;78.49
50702;BME280;36670;50.094;8.496;2023-03-13T06:48:06;99140.94;;;12.10;78.54
50702;BME280;36670;50.094;8.496;2023-03-13T06:50:31;99134.22;;;12.16;78.35
50702;BME280;36670;50.094;8.496;2023-03-13T06:52:56;99119.94;;;12.33;78.19
50702;BME280;36670;50.094;8.496;2023-03-13T06:55:22;99118.47;;;12.41;77.70
50702;BME280;36670;50.094;8.496;2023-03-13T06:57:51;99102.28;;;12.53;78.03
50702;BME280;36670;50.094;8.496;2023-03-13T07:00:17;99094.03;;;12.48;77.39
50702;BME280;36670;50.094;8.496;2023-03-13T07:02:43;99104.16;;;12.58;77.84
50702;BME280;36670;50.094;8.496;2023-03-13T07:05:08;99109.28;;;12.70;77.51
50702;BME280;36670;50.094;8.496;2023-03-13T07:07:33;99109.06;;;12.85;76.45
50702;BME280;36670;50.094;8.496;2023-03-13T07:09:59;99112.25;;;12.97;75.92
50702;BME280;36670;50.094;8.496;2023-03-13T07:12:25;99121.72;;;12.91;75.98
50702;BME280;36670;50.094;8.496;2023-03-13T07:14:50;99124.13;;;12.98;76.44
50702;BME280;36670;50.094;8.496;2023-03-13T07:17:15;99133.88;;;12.95;76.46
50702;BME280;36670;50.094;8.496;2023-03-13T07:19:40;99143.78;;;13.02;76.18
50702;BME280;36670;50.094;8.496;2023-03-13T07:22:06;99136.50;;;13.06;75.94
50702;BME280;36670;50.094;8.496;2023-03-13T07:24:31;99147.00;;;13.09;76.35
50702;BME280;36670;50.094;8.496;2023-03-13T07:26:56;99153.03;;;13.11;75.96
50702;BME280;36670;50.094;8.496;2023-03-13T07:29:21;99141.47;;;13.28;75.60
50702;BME280;36670;50.094;8.496;2023-03-13T07:31:47;99146.72;;;13.29;75.75
50702;BME280;36670;50.094;8.496;2023-03-13T07:34:13;99135.94;;;13.28;75.14
50702;BME280;36670;50.094;8.496;2023-03-13T07:36:38;99143.94;;;13.29;75.37
50702;BME280;36670;50.094;8.496;2023-03-13T07:39:05;99146.28;;;13.41;74.60
50702;BME280;36670;50.094;8.496;2023-03-13T07:41:31;99146.59;;;13.40;75.34
50702;BME280;36670;50.094;8.496;2023-03-13T07:43:56;99136.84;;;13.42;74.96
50702;BME280;36670;50.094;8.496;2023-03-13T07:46:21;99149.50;;;13.48;74.53
50702;BME280;36670;50.094;8.496;2023-03-13T07:48:47;99139.25;;;13.49;74.25
50702;BME280;36670;50.094;8.496;2023-03-13T07:51:14;99143.06;;;13.53;75.11
50702;BME280;36670;50.094;8.496;2023-03-13T07:53:40;99126.94;;;13.55;74.00
50702;BME280;36670;50.094;8.496;2023-03-13T07:56:09;99137.72;;;13.76;74.00
50702;BME280;36670;50.094;8.496;2023-03-13T07:58:37;99139.81;;;13.65;74.21
50702;BME280;36670;50.094;8.496;2023-03-13T08:01:15;99130.03;;;13.54;74.88
50702;BME280;36670;50.094;8.496;2023-03-13T08:03:41;99127.09;;;13.64;74.30
50702;BME280;36670;50.094;8.496;2023-03-13T08:06:09;99134.31;;;13.79;73.91
50702;BME280;36670;50.094;8.496;2023-03-13T08:08:35;99132.78;;;13.73;74.56
50702;BME280;36670;50.094;8.496;2023-03-13T08:11:01;99133.53;;;13.78;74.56
50702;BME280;36670;50.094;8.496;2023-03-13T08:13:27;99136.38;;;13.73;74.36
50702;BME280;36670;50.094;8.496;2023-03-13T08:16:00;99136.53;;;13.82;74.37
50702;BME280;36670;50.094;8.496;2023-03-13T08:18:26;99116.78;;;13.83;74.19
50702;BME280;36670;50.094;8.496;2023-03-13T08:20:51;99120.13;;;13.99;74.04
50702;BME280;36670;50.094;8.496;2023-03-13T08:23:16;99131.97;;;14.19;73.94
50702;BME280;36670;50.094;8.496;2023-03-13T08:25:41;99135.91;;;14.32;73.11
50702;BME280;36670;50.094;8.496;2023-03-13T08:28:07;99129.13;;;14.38;73.46
50702;BME280;36670;50.094;8.496;2023-03-13T08:30:32;99136.03;;;14.41;73.27
50702;BME280;36670;50.094;8.496;2023-03-13T08:32:58;99138.50;;;14.42;72.50
50702;BME280;36670;50.094;8.496;2023-03-13T08:35:23;99124.78;;;14.32;73.46
50702;BME280;36670;50.094;8.496;2023-03-13T08:37:48;99144.88;;;14.57;72.91
50702;BME280;36670;50.094;8.496;2023-03-13T08:40:14;99154.25;;;14.61;72.55
50702;BME280;36670;50.094;8.496;2023-03-13T08:42:39;99148.41;;;14.62;72.57
50702;BME280;36670;50.094;8.496;2023-03-13T08:45:05;99150.78;;;14.69;72.61
50702;BME280;36670;50.094;8.496;2023-03-13T08:47:30;99163.41;;;14.61;71.77
50702;BME280;36670;50.094;8.496;2023-03-13T08:49:56;99161.22;;;14.58;72.19
50702;BME280;36670;50.094;8.496;2023-03-13T08:52:22;99172.28;;;14.63;72.12
50702;BME280;36670;50.094;8.496;2023-03-13T08:54:47;99169.06;;;14.56;72.36
50702;BME280;36670;50.094;8.496;2023-03-13T08:57:12;99175.31;;;14.48;72.87
50702;BME280;36670;50.094;8.496;2023-03-13T08:59:38;99161.75;;;14.46;72.52
50702;BME280;36670;50.094;8.496;2023-03-13T09:02:03;99155.47;;;14.41;72.81
50702;BME280;36670;50.094;8.496;2023-03-13T09:04:28;99168.50;;;14.40;73.39
50702;BME280;36670;50.094;8.496;2023-03-13T09:06:54;99139.84;;;14.45;72.85
50702;BME280;36670;50.094;8.496;2023-03-13T09:09:19;99143.34;;;14.50;73.59
50702;BME280;36670;50.094;8.496;2023-03-13T09:11:44;99139.44;;;14.65;73.16
50702;BME280;36670;50.094;8.496;2023-03-13T09:14:10;99138.81;;;14.55;73.43
50702;BME280;36670;50.094;8.496;2023-03-13T09:16:35;99135.56;;;14.66;73.19
50702;BME280;36670;50.094;8.496;2023-03-13T09:19:01;99136.44;;;14.62;73.11
50702;BME280;36670;50.094;8.496;2023-03-13T09:21:28;99122.78;;;14.65;71.92
50702;BME280;36670;50.094;8.496;2023-03-13T09:23:54;99131.53;;;14.59;72.81
50702;BME280;36670;50.094;8.496;2023-03-13T09:26:21;99117.75;;;14.67;72.74
50702;BME280;36670;50.094;8.496;2023-03-13T09:28:47;99122.88;;;14.60;72.34
50702;BME280;36670;50.094;8.496;2023-03-13T09:31:15;99117.84;;;14.62;72.45
50702;BME280;36670;50.094;8.496;2023-03-13T09:33:41;99101.72;;;14.64;72.40
50702;BME280;36670;50.094;8.496;2023-03-13T09:36:07;99113.84;;;14.68;72.27
50702;BME280;36670;50.094;8.496;2023-03-13T09:38:33;99092.13;;;14.71;72.18
50702;BME280;36670;50.094;8.496;2023-03-13T09:41:10;99102.72;;;14.82;72.18
50702;BME280;36670;50.094;8.496;2023-03-13T09:43:46;99097.75;;;14.93;71.42
50702;BME280;36670;50.094;8.496;2023-03-13T09:46:24;99097.66;;;14.98;71.46
50702;BME280;36670;50.094;8.496;2023-03-13T09:49:00;99089.13;;;14.95;71.26
50702;BME280;36670;50.094;8.496;2023-03-13T09:51:28;99092.28;;;15.16;71.53
50702;BME280;36670;50.094;8.496;2023-03-13T09:53:59;99078.28;;;15.07;71.01
50702;BME280;36670;50.094;8.496;2023-03-13T09:56:33;99094.34;;;15.10;70.12
50702;BME280;36670;50.094;8.496;2023-03-13T09:59:18;99090.97;;;14.99;71.02
50702;BME280;36670;50.094;8.496;2023-03-13T10:01:48;99099.28;;;15.13;70.53
50702;BME280;36670;50.094;8.496;2023-03-13T10:06:46;99101.34;;;15.08;70.68
50702;BME280;36670;50.094;8.496;2023-03-13T10:09:18;99098.00;;;15.19;70.58
50702;BME280;36670;50.094;8.496;2023-03-13T10:12:05;99089.94;;;15.32;70.47
50702;BME280;36670;50.094;8.496;2023-03-13T10:14:50;99079.59;;;15.69;69.19
50702;BME280;36670;50.094;8.496;2023-03-13T10:17:31;99081.91;;;15.90;68.67
50702;BME280;36670;50.094;8.496;2023-03-13T10:22:35;99071.94;;;15.75;68.58
50702;BME280;36670;50.094;8.496;2023-03-13T10:25:15;99073.47;;;15.58;69.03
50702;BME280;36670;50.094;8.496;2023-03-13T10:27:49;99087.19;;;15.55;68.77
50702;BME280;36670;50.094;8.496;2023-03-13T10:30:25;99087.75;;;15.43;69.38
50702;BME280;36670;50.094;8.496;2023-03-13T10:32:59;99073.47;;;15.58;68.73
50702;BME280;36670;50.094;8.496;2023-03-13T10:35:32;99075.88;;;15.51;68.95
50702;BME280;36670;50.094;8.496;2023-03-13T10:40:32;99069.44;;;15.64;69.11
50702;BME280;36670;50.094;8.496;2023-03-13T10:43:01;99072.81;;;15.61;68.63
50702;BME280;36670;50.094;8.496;2023-03-13T10:45:34;99059.31;;;15.68;69.04
50702;BME280;36670;50.094;8.496;2023-03-13T10:50:35;99062.81;;;16.06;67.94
50702;BME280;36670;50.094;8.496;2023-03-13T10:56:08;99060.34;;;16.35;67.05
50702;BME280;36670;50.094;8.496;2023-03-13T10:58:40;99063.38;;;16.57;67.13
50702;BME280;36670;50.094;8.496;2023-03-13T11:03:46;99047.22;;;16.36;66.58
50702;BME280;36670;50.094;8.496;2023-03-13T11:08:47;99048.81;;;16.19;66.98
50702;BME280;36670;50.094;8.496;2023-03-13T11:11:19;99051.69;;;16.06;67.25
50702;BME280;36670;50.094;8.496;2023-03-13T11:13:45;99045.44;;;16.00;67.82
50702;BME280;36670;50.094;8.496;2023-03-13T11:16:20;99043.16;;;16.02;68.02
50702;BME280;36670;50.094;8.496;2023-03-13T11:19:08;99039.38;;;15.98;68.44
50702;BME280;36670;50.094;8.496;2023-03-13T11:21:53;99031.84;;;15.98;68.36
50702;BME280;36670;50.094;8.496;2023-03-13T11:24:29;99035.81;;;16.06;68.27
50702;BME280;36670;50.094;8.496;2023-03-13T11:27:03;99027.16;;;16.08;67.97
50702;BME280;36670;50.094;8.496;2023-03-13T11:30:02;99015.22;;;16.16;67.31
50702;BME280;36670;50.094;8.496;2023-03-13T11:32:38;99025.94;;;16.00;67.03
50702;BME280;36670;50.094;8.496;2023-03-13T11:35:19;99015.44;;;15.88;66.78
50702;BME280;36670;50.094;8.496;2023-03-13T11:37:49;99009.78;;;15.79;67.15
50702;BME280;36670;50.094;8.496;2023-03-13T11:40:25;99009.47;;;15.81;66.39
50702;BME280;36670;50.094;8.496;2023-03-13T11:43:08;98994.47;;;15.91;66.79
50702;BME280;36670;50.094;8.496;2023-03-13T11:46:09;98975.97;;;15.95;66.51
50702;BME280;36670;50.094;8.496;2023-03-13T11:48:58;98993.31;;;15.92;66.90
50702;BME280;36670;50.094;8.496;2023-03-13T11:51:43;98979.44;;;16.00;66.08
50702;BME280;36670;50.094;8.496;2023-03-13T11:57:04;98974.81;;;16.36;65.61
50702;BME280;36670;50.094;8.496;2023-03-13T12:02:35;98958.00;;;16.76;65.39
50702;BME280;36670;50.094;8.496;2023-03-13T12:05:09;98964.88;;;16.79;64.80
50702;BME280;36670;50.094;8.496;2023-03-13T12:07:52;98953.88;;;16.82;65.26
50702;BME280;36670;50.094;8.496;2023-03-13T12:10:25;98939.47;;;16.98;64.64
50702;BME280;36670;50.094;8.496;2023-03-13T12:13:01;98944.25;;;16.88;63.95
50702;BME280;36670;50.094;8.496;2023-03-13T12:15:37;98942.09;;;16.77;64.75
50702;BME280;36670;50.094;8.496;2023-03-13T12:18:14;98940.94;;;16.78;64.44
50702;BME280;36670;50.094;8.496;2023-03-13T12:20:55;98938.94;;;16.52;64.89
50702;BME280;36670;50.094;8.496;2023-03-13T12:23:30;98940.44;;;16.49;64.48
50702;BME280;36670;50.094;8.496;2023-03-13T12:26:01;98934.69;;;16.37;65.19
50702;BME280;36670;50.094;8.496;2023-03-13T12:28:36;98930.91;;;16.42;65.05
50702;BME280;36670;50.094;8.496;2023-03-13T12:31:27;98918.47;;;16.48;65.35
50702;BME280;36670;50.094;8.496;2023-03-13T12:36:39;98913.53;;;16.45;65.71
50702;BME280;36670;50.094;8.496;2023-03-13T12:41:42;98905.03;;;16.59;66.00
50702;BME280;36670;50.094;8.496;2023-03-13T12:44:14;98907.50;;;16.43;66.60
50702;BME280;36670;50.094;8.496;2023-03-13T12:46:46;98891.44;;;16.40;67.13
50702;BME280;36670;50.094;8.496;2023-03-13T12:49:41;98882.25;;;16.39;67.44
50702;BME280;36670;50.094;8.496;2023-03-13T12:52:29;98890.88;;;16.11;68.51
50702;BME280;36670;50.094;8.496;2023-03-13T12:55:18;98876.41;;;15.83;68.90
50702;BME280;36670;50.094;8.496;2023-03-13T12:58:04;98877.81;;;16.12;68.55
50702;BME280;36670;50.094;8.496;2023-03-13T13:00:34;98860.63;;;16.36;68.13
50702;BME280;36670;50.094;8.496;2023-03-13T13:03:05;98856.22;;;16.52;67.93
50702;BME280;36670;50.094;8.496;2023-03-13T13:05:33;98857.19;;;16.48;68.52
50702;BME280;36670;50.094;8.496;2023-03-13T13:07:58;98840.47;;;16.30;68.16
50702;BME280;36670;50.094;8.496;2023-03-13T13:10:25;98827.84;;;16.24;68.82
50702;BME280;36670;50.094;8.496;2023-03-13T13:13:30;98829.00;;;16.49;68.62
50702;BME280;36670;50.094;8.496;2023-03-13T13:16:01;98796.19;;;16.72;68.96
50702;BME280;36670;50.094;8.496;2023-03-13T13:18:30;98806.19;;;17.38;67.96
50702;BME280;36670;50.094;8.496;2023-03-13T13:28:51;98747.81;;;17.33;67.05
50702;BME280;36670;50.094;8.496;2023-03-13T13:36:53;98737.72;;;17.71;65.92
50702;BME280;36670;50.094;8.496;2023-03-13T13:39:44;98733.63;;;17.98;66.66
50702;BME280;36670;50.094;8.496;2023-03-13T13:44:59;98698.63;;;18.68;64.09
50702;BME280;36670;50.094;8.496;2023-03-13T13:47:27;98702.59;;;18.79;64.12
50702;BME280;36670;50.094;8.496;2023-03-13T13:49:56;98690.53;;;19.12;64.15
50702;BME280;36670;50.094;8.496;2023-03-13T13:52:38;98688.78;;;19.07;63.58
50702;BME280;36670;50.094;8.496;2023-03-13T13:58:04;98663.03;;;19.14;62.78
50702;BME280;36670;50.094;8.496;2023-03-13T14:05:42;98641.66;;;18.72;63.30
50702;BME280;36670;50.094;8.496;2023-03-13T14:10:43;98637.63;;;19.19;62.49